sensor_id;sensor_type;location;lat;lon;timestamp;temperature;humidity
50162;DHT22;36061;48.116;11.612;2023-02-19T00:01:06;11.00;99.90
50162;DHT22;36061;48.116;11.612;2023-02-19T00:03:34;11.00;99.90
50162;DHT22;36061;48.116;11.612;2023-02-19T00:06:01;11.00;99.90
50162;DHT22;36061;48.116;11.612;2023-02-19T00:08:29;11.00;99.90
50162;DHT22;36061;48.116;11.612;2023-02-19T00:11:00;11.00;99.90
50162;DHT22;36061;48.116;11.612;2023-02-19T00:13:28;10.90;99.90
50162;DHT22;36061;48.116;11.612;2023-02-19T00:15:56;10.90;99.90
50162;DHT22;36061;48.116;11.612;2023-02-19T00:18:23;10.90;99.90
50162;DHT22;36061;48.116;11.612;2023-02-19T00:20:51;11.00;99.90
50162;DHT22;36061;48.116;11.612;2023-02-19T00:23:18;11.00;99.90
50162;DHT22;36061;48.116;11.612;2023-02-19T00:25:45;11.00;99.90
50162;DHT22;36061;48.116;11.612;2023-02-19T00:28:12;10.90;99.90
50162;DHT22;36061;48.116;11.612;2023-02-19T00:30:39;10.90;99.90
50162;DHT22;36061;48.116;11.612;2023-02-19T00:33:08;10.90;99.90
50162;DHT22;36061;48.116;11.612;2023-02-19T00:35:35;10.90;99.90
50162;DHT22;36061;48.116;11.612;2023-02-19T00:38:03;10.90;99.90
50162;DHT22;36061;48.116;11.612;2023-02-19T00:40:30;10.90;99.90
50162;DHT22;36061;48.116;11.612;2023-02-19T00:42:57;10.90;99.90
50162;DHT22;36061;48.116;11.612;2023-02-19T00:45:24;10.90;99.90
50162;DHT22;36061;48.116;11.612;2023-02-19T00:47:52;10.90;99.90
50162;DHT22;36061;48.116;11.612;2023-02-19T00:50:20;10.90;99.90
50162;DHT22;36061;48.116;11.612;2023-02-19T00:52:48;10.90;99.90
50162;DHT22;36061;48.116;11.612;2023-02-19T00:55:15;10.80;99.90
50162;DHT22;36061;48.116;11.612;2023-02-19T00:57:42;10.80;99.90
50162;DHT22;36061;48.116;11.612;2023-02-19T01:00:11;10.90;99.90
50162;DHT22;36061;48.116;11.612;2023-02-19T01:02:38;10.90;99.90
50162;DHT22;36061;48.116;11.612;2023-02-19T01:05:06;10.90;99.90
50162;DHT22;36061;48.116;11.612;2023-02-19T01:07:36;10.90;99.90
50162;DHT22;36061;48.116;11.612;2023-02-19T01:10:04;10.90;99.90
50162;DHT22;36061;48.116;11.612;2023-02-19T01:12:32;10.80;99.90
50162;DHT22;36061;48.116;11.612;2023-02-19T01:14:59;10.80;99.90
50162;DHT22;36061;48.116;11.612;2023-02-19T01:17:26;10.80;99.90
50162;DHT22;36061;48.116;11.612;2023-02-19T01:19:54;10.80;99.90
50162;DHT22;36061;48.116;11.612;2023-02-19T01:22:21;10.80;99.90
50162;DHT22;36061;48.116;11.612;2023-02-19T01:24:49;10.80;99.90
50162;DHT22;36061;48.116;11.612;2023-02-19T01:27:17;10.80;99.90
50162;DHT22;36061;48.116;11.612;2023-02-19T01:29:47;10.80;99.90
50162;DHT22;36061;48.116;11.612;2023-02-19T01:32:14;10.70;99.90
50162;DHT22;36061;48.116;11.612;2023-02-19T01:34:41;10.80;99.90
50162;DHT22;36061;48.116;11.612;2023-02-19T01:37:09;10.80;99.90
50162;DHT22;36061;48.116;11.612;2023-02-19T01:39:37;10.70;99.90
50162;DHT22;36061;48.116;11.612;2023-02-19T01:42:11;10.70;99.90
50162;DHT22;36061;48.116;11.612;2023-02-19T01:47:58;10.70;99.90
50162;DHT22;36061;48.116;11.612;2023-02-19T01:50:29;10.70;99.90
50162;DHT22;36061;48.116;11.612;2023-02-19T01:52:59;10.70;99.90
50162;DHT22;36061;48.116;11.612;2023-02-19T01:55:29;10.70;99.90
50162;DHT22;36061;48.116;11.612;2023-02-19T01:57:58;10.70;99.90
50162;DHT22;36061;48.116;11.612;2023-02-19T02:00:26;10.60;99.90
50162;DHT22;36061;48.116;11.612;2023-02-19T02:02:55;10.60;99.90
50162;DHT22;36061;48.116;11.612;2023-02-19T02:05:42;10.70;99.90
50162;DHT22;36061;48.116;11.612;2023-02-19T02:08:12;10.70;99.90
50162;DHT22;36061;48.116;11.612;2023-02-19T02:10:57;10.70;99.90
50162;DHT22;36061;48.116;11.612;2023-02-19T02:13:27;10.70;99.90
50162;DHT22;36061;48.116;11.612;2023-02-19T02:16:03;10.60;99.90
50162;DHT22;36061;48.116;11.612;2023-02-19T02:18:41;10.60;99.90
50162;DHT22;36061;48.116;11.612;2023-02-19T02:21:34;10.60;99.90
50162;DHT22;36061;48.116;11.612;2023-02-19T02:24:30;10.50;99.90
50162;DHT22;36061;48.116;11.612;2023-02-19T02:27:18;10.50;99.90
50162;DHT22;36061;48.116;11.612;2023-02-19T02:30:23;10.40;99.90
50162;DHT22;36061;48.116;11.612;2023-02-19T02:33:01;10.20;99.90
50162;DHT22;36061;48.116;11.612;2023-02-19T02:35:40;10.20;99.90
50162;DHT22;36061;48.116;11.612;2023-02-19T02:38:10;10.10;99.90
50162;DHT22;36061;48.116;11.612;2023-02-19T02:40:41;10.00;99.90
50162;DHT22;36061;48.116;11.612;2023-02-19T02:43:10;9.90;99.90
50162;DHT22;36061;48.116;11.612;2023-02-19T02:45:40;9.90;99.90
50162;DHT22;36061;48.116;11.612;2023-02-19T02:48:32;9.80;99.90
50162;DHT22;36061;48.116;11.612;2023-02-19T02:51:06;9.80;99.90
50162;DHT22;36061;48.116;11.612;2023-02-19T02:53:44;9.70;99.90
50162;DHT22;36061;48.116;11.612;2023-02-19T02:56:30;9.60;99.90
50162;DHT22;36061;48.116;11.612;2023-02-19T02:59:00;9.50;99.90
50162;DHT22;36061;48.116;11.612;2023-02-19T03:01:32;9.50;99.90
50162;DHT22;36061;48.116;11.612;2023-02-19T03:04:23;9.50;99.90
50162;DHT22;36061;48.116;11.612;2023-02-19T03:06:51;9.40;99.90
50162;DHT22;36061;48.116;11.612;2023-02-19T03:09:22;9.30;99.90
50162;DHT22;36061;48.116;11.612;2023-02-19T03:11:58;9.20;99.90
50162;DHT22;36061;48.116;11.612;2023-02-19T03:14:48;9.30;99.90
50162;DHT22;36061;48.116;11.612;2023-02-19T03:17:41;9.30;99.90
50162;DHT22;36061;48.116;11.612;2023-02-19T03:20:28;9.20;99.90
50162;DHT22;36061;48.116;11.612;2023-02-19T03:22:58;9.20;99.90
50162;DHT22;36061;48.116;11.612;2023-02-19T03:25:31;9.10;99.90
50162;DHT22;36061;48.116;11.612;2023-02-19T03:28:27;9.10;99.90
50162;DHT22;36061;48.116;11.612;2023-02-19T03:31:11;9.10;99.90
50162;DHT22;36061;48.116;11.612;2023-02-19T03:33:42;9.10;99.90
50162;DHT22;36061;48.116;11.612;2023-02-19T03:36:13;9.00;99.90
50162;DHT22;36061;48.116;11.612;2023-02-19T03:38:46;8.90;99.90
50162;DHT22;36061;48.116;11.612;2023-02-19T03:41:19;8.80;99.90
50162;DHT22;36061;48.116;11.612;2023-02-19T03:43:54;8.80;99.90
50162;DHT22;36061;48.116;11.612;2023-02-19T03:46:27;8.80;99.90
50162;DHT22;36061;48.116;11.612;2023-02-19T03:49:04;8.80;99.90
50162;DHT22;36061;48.116;11.612;2023-02-19T03:51:38;8.80;99.90
50162;DHT22;36061;48.116;11.612;2023-02-19T03:54:12;8.80;99.90
50162;DHT22;36061;48.116;11.612;2023-02-19T03:56:46;8.70;99.90
50162;DHT22;36061;48.116;11.612;2023-02-19T03:59:19;8.70;99.90
50162;DHT22;36061;48.116;11.612;2023-02-19T04:01:53;8.60;99.90
50162;DHT22;36061;48.116;11.612;2023-02-19T04:04:26;8.60;99.90
50162;DHT22;36061;48.116;11.612;2023-02-19T04:06:55;8.60;99.90
50162;DHT22;36061;48.116;11.612;2023-02-19T04:09:27;8.50;99.90
50162;DHT22;36061;48.116;11.612;2023-02-19T04:12:03;8.50;99.90
50162;DHT22;36061;48.116;11.612;2023-02-19T04:14:35;8.50;99.90
50162;DHT22;36061;48.116;11.612;2023-02-19T04:17:07;8.60;99.90
50162;DHT22;36061;48.116;11.612;2023-02-19T04:19:39;8.60;99.90
50162;DHT22;36061;48.116;11.612;2023-02-19T04:22:09;8.50;99.90
50162;DHT22;36061;48.116;11.612;2023-02-19T04:24:40;8.50;99.90
50162;DHT22;36061;48.116;11.612;2023-02-19T04:27:09;8.50;99.90
50162;DHT22;36061;48.116;11.612;2023-02-19T04:29:36;8.50;99.90
50162;DHT22;36061;48.116;11.612;2023-02-19T04:32:04;8.40;99.90
50162;DHT22;36061;48.116;11.612;2023-02-19T04:34:31;8.40;99.90
50162;DHT22;36061;48.116;11.612;2023-02-19T04:36:59;8.40;99.90
50162;DHT22;36061;48.116;11.612;2023-02-19T04:39:27;8.40;99.90
50162;DHT22;36061;48.116;11.612;2023-02-19T04:41:54;8.40;99.90
50162;DHT22;36061;48.116;11.612;2023-02-19T04:44:21;8.40;99.90
50162;DHT22;36061;48.116;11.612;2023-02-19T04:46:48;8.30;99.90
50162;DHT22;36061;48.116;11.612;2023-02-19T04:49:15;8.40;99.90
50162;DHT22;36061;48.116;11.612;2023-02-19T04:51:43;8.40;99.90
50162;DHT22;36061;48.116;11.612;2023-02-19T04:54:11;8.40;99.90
50162;DHT22;36061;48.116;11.612;2023-02-19T04:56:39;8.30;99.90
50162;DHT22;36061;48.116;11.612;2023-02-19T04:59:06;8.40;99.90
50162;DHT22;36061;48.116;11.612;2023-02-19T05:01:33;8.40;99.90
50162;DHT22;36061;48.116;11.612;2023-02-19T05:04:00;8.40;99.90
50162;DHT22;36061;48.116;11.612;2023-02-19T05:06:27;8.40;99.90
50162;DHT22;36061;48.116;11.612;2023-02-19T05:08:55;8.40;99.90
50162;DHT22;36061;48.116;11.612;2023-02-19T05:11:24;8.40;99.90
50162;DHT22;36061;48.116;11.612;2023-02-19T05:13:51;8.40;99.90
50162;DHT22;36061;48.116;11.612;2023-02-19T05:16:18;8.50;99.90
50162;DHT22;36061;48.116;11.612;2023-02-19T05:18:46;8.50;99.90
50162;DHT22;36061;48.116;11.612;2023-02-19T05:21:14;8.50;99.90
50162;DHT22;36061;48.116;11.612;2023-02-19T05:23:42;8.50;99.90
50162;DHT22;36061;48.116;11.612;2023-02-19T05:26:12;8.50;99.90
50162;DHT22;36061;48.116;11.612;2023-02-19T05:28:43;8.50;99.90
50162;DHT22;36061;48.116;11.612;2023-02-19T05:31:11;8.50;99.90
50162;DHT22;36061;48.116;11.612;2023-02-19T05:33:39;8.50;99.90
50162;DHT22;36061;48.116;11.612;2023-02-19T05:36:10;8.50;99.90
50162;DHT22;36061;48.116;11.612;2023-02-19T05:38:38;8.50;99.90
50162;DHT22;36061;48.116;11.612;2023-02-19T05:41:07;8.50;99.90
50162;DHT22;36061;48.116;11.612;2023-02-19T05:43:35;8.50;99.90
50162;DHT22;36061;48.116;11.612;2023-02-19T05:46:04;8.60;99.90
50162;DHT22;36061;48.116;11.612;2023-02-19T05:48:31;8.50;99.90
50162;DHT22;36061;48.116;11.612;2023-02-19T05:51:03;8.50;99.90
50162;DHT22;36061;48.116;11.612;2023-02-19T05:53:31;8.60;99.90
50162;DHT22;36061;48.116;11.612;2023-02-19T05:55:58;8.60;99.90
50162;DHT22;36061;48.116;11.612;2023-02-19T05:58:25;8.60;99.90
50162;DHT22;36061;48.116;11.612;2023-02-19T06:00:53;8.60;99.90
50162;DHT22;36061;48.116;11.612;2023-02-19T06:03:22;8.70;99.90
50162;DHT22;36061;48.116;11.612;2023-02-19T06:05:49;8.70;99.90
50162;DHT22;36061;48.116;11.612;2023-02-19T06:08:16;8.70;99.90
50162;DHT22;36061;48.116;11.612;2023-02-19T06:10:43;8.70;99.90
50162;DHT22;36061;48.116;11.612;2023-02-19T06:13:11;8.70;99.90
50162;DHT22;36061;48.116;11.612;2023-02-19T06:15:38;8.70;99.90
50162;DHT22;36061;48.116;11.612;2023-02-19T06:18:05;8.70;99.90
50162;DHT22;36061;48.116;11.612;2023-02-19T06:20:34;8.70;99.90
50162;DHT22;36061;48.116;11.612;2023-02-19T06:23:01;8.70;99.90
50162;DHT22;36061;48.116;11.612;2023-02-19T06:25:28;8.70;99.90
50162;DHT22;36061;48.116;11.612;2023-02-19T06:27:55;8.70;99.90
50162;DHT22;36061;48.116;11.612;2023-02-19T06:30:23;8.70;99.90
50162;DHT22;36061;48.116;11.612;2023-02-19T06:32:51;8.70;99.90
50162;DHT22;36061;48.116;11.612;2023-02-19T06:35:19;8.80;99.90
50162;DHT22;36061;48.116;11.612;2023-02-19T06:37:47;8.80;99.90
50162;DHT22;36061;48.116;11.612;2023-02-19T06:40:15;8.90;99.90
50162;DHT22;36061;48.116;11.612;2023-02-19T06:42:43;8.80;99.90
50162;DHT22;36061;48.116;11.612;2023-02-19T06:45:10;8.80;99.90
50162;DHT22;36061;48.116;11.612;2023-02-19T06:47:37;8.80;99.90
50162;DHT22;36061;48.116;11.612;2023-02-19T06:50:05;8.80;99.90
50162;DHT22;36061;48.116;11.612;2023-02-19T06:52:32;8.80;99.90
50162;DHT22;36061;48.116;11.612;2023-02-19T06:55:00;8.80;99.90
50162;DHT22;36061;48.116;11.612;2023-02-19T06:57:28;8.80;99.90
50162;DHT22;36061;48.116;11.612;2023-02-19T06:59:55;8.80;99.90
50162;DHT22;36061;48.116;11.612;2023-02-19T07:02:22;8.90;99.90
50162;DHT22;36061;48.116;11.612;2023-02-19T07:04:50;9.00;99.90
50162;DHT22;36061;48.116;11.612;2023-02-19T07:07:17;9.00;99.90
50162;DHT22;36061;48.116;11.612;2023-02-19T07:09:44;9.00;99.90
50162;DHT22;36061;48.116;11.612;2023-02-19T07:12:13;9.00;99.90
50162;DHT22;36061;48.116;11.612;2023-02-19T07:14:40;9.10;99.90
50162;DHT22;36061;48.116;11.612;2023-02-19T07:17:07;9.10;99.90
50162;DHT22;36061;48.116;11.612;2023-02-19T07:19:34;9.20;99.90
50162;DHT22;36061;48.116;11.612;2023-02-19T07:22:01;9.20;99.90
50162;DHT22;36061;48.116;11.612;2023-02-19T07:24:28;9.20;99.90
50162;DHT22;36061;48.116;11.612;2023-02-19T07:26:56;9.20;99.90
50162;DHT22;36061;48.116;11.612;2023-02-19T07:29:24;9.10;99.90
50162;DHT22;36061;48.116;11.612;2023-02-19T07:31:54;9.10;99.90
50162;DHT22;36061;48.116;11.612;2023-02-19T07:34:22;9.10;99.90
50162;DHT22;36061;48.116;11.612;2023-02-19T07:36:49;9.10;99.90
50162;DHT22;36061;48.116;11.612;2023-02-19T07:39:16;9.10;99.90
50162;DHT22;36061;48.116;11.612;2023-02-19T07:41:43;9.10;99.90
50162;DHT22;36061;48.116;11.612;2023-02-19T07:44:22;9.10;99.90
50162;DHT22;36061;48.116;11.612;2023-02-19T07:46:50;9.10;99.90
50162;DHT22;36061;48.116;11.612;2023-02-19T07:49:18;9.10;99.90
50162;DHT22;36061;48.116;11.612;2023-02-19T07:51:45;9.10;99.90
50162;DHT22;36061;48.116;11.612;2023-02-19T07:54:12;9.10;99.90
50162;DHT22;36061;48.116;11.612;2023-02-19T07:56:40;9.10;99.90
50162;DHT22;36061;48.116;11.612;2023-02-19T07:59:07;9.20;99.90
50162;DHT22;36061;48.116;11.612;2023-02-19T08:01:34;9.20;99.90
50162;DHT22;36061;48.116;11.612;2023-02-19T08:04:21;9.20;99.90
50162;DHT22;36061;48.116;11.612;2023-02-19T08:06:48;9.20;99.90
50162;DHT22;36061;48.116;11.612;2023-02-19T08:09:15;9.20;99.90
50162;DHT22;36061;48.116;11.612;2023-02-19T08:11:43;9.10;99.90
50162;DHT22;36061;48.116;11.612;2023-02-19T08:14:27;9.10;99.90
50162;DHT22;36061;48.116;11.612;2023-02-19T08:16:54;9.20;99.90
50162;DHT22;36061;48.116;11.612;2023-02-19T08:19:23;9.20;99.90
50162;DHT22;36061;48.116;11.612;2023-02-19T08:21:50;9.20;99.90
50162;DHT22;36061;48.116;11.612;2023-02-19T08:24:18;9.20;99.90
50162;DHT22;36061;48.116;11.612;2023-02-19T08:26:45;9.20;99.90
50162;DHT22;36061;48.116;11.612;2023-02-19T08:29:12;9.30;99.90
50162;DHT22;36061;48.116;11.612;2023-02-19T08:31:39;9.30;99.90
50162;DHT22;36061;48.116;11.612;2023-02-19T08:34:07;9.40;99.90
50162;DHT22;36061;48.116;11.612;2023-02-19T08:36:36;9.40;99.90
50162;DHT22;36061;48.116;11.612;2023-02-19T08:39:03;9.40;99.90
50162;DHT22;36061;48.116;11.612;2023-02-19T08:41:30;9.40;99.90
50162;DHT22;36061;48.116;11.612;2023-02-19T08:43:58;9.40;99.90
50162;DHT22;36061;48.116;11.612;2023-02-19T08:46:25;9.40;99.90
50162;DHT22;36061;48.116;11.612;2023-02-19T08:48:52;9.40;99.90
50162;DHT22;36061;48.116;11.612;2023-02-19T08:51:19;9.40;99.90
50162;DHT22;36061;48.116;11.612;2023-02-19T08:53:48;9.50;99.90
50162;DHT22;36061;48.116;11.612;2023-02-19T08:56:15;9.40;99.90
50162;DHT22;36061;48.116;11.612;2023-02-19T08:58:43;9.40;99.90
50162;DHT22;36061;48.116;11.612;2023-02-19T09:01:13;9.40;99.90
50162;DHT22;36061;48.116;11.612;2023-02-19T09:03:40;9.40;99.90
50162;DHT22;36061;48.116;11.612;2023-02-19T09:06:12;9.30;99.90
50162;DHT22;36061;48.116;11.612;2023-02-19T09:08:40;9.30;99.90
50162;DHT22;36061;48.116;11.612;2023-02-19T09:11:08;9.40;99.90
50162;DHT22;36061;48.116;11.612;2023-02-19T09:13:36;9.30;99.90
50162;DHT22;36061;48.116;11.612;2023-02-19T09:16:03;9.30;99.90
50162;DHT22;36061;48.116;11.612;2023-02-19T09:18:31;9.30;99.90
50162;DHT22;36061;48.116;11.612;2023-02-19T09:20:59;9.30;99.90
50162;DHT22;36061;48.116;11.612;2023-02-19T09:23:27;9.30;99.90
50162;DHT22;36061;48.116;11.612;2023-02-19T09:25:57;9.40;99.90
50162;DHT22;36061;48.116;11.612;2023-02-19T09:28:27;9.60;99.90
50162;DHT22;36061;48.116;11.612;2023-02-19T09:30:54;9.70;99.90
50162;DHT22;36061;48.116;11.612;2023-02-19T09:33:21;9.70;99.90
50162;DHT22;36061;48.116;11.612;2023-02-19T09:35:48;9.80;99.90
50162;DHT22;36061;48.116;11.612;2023-02-19T09:38:16;9.90;99.90
50162;DHT22;36061;48.116;11.612;2023-02-19T09:40:43;9.90;99.90
50162;DHT22;36061;48.116;11.612;2023-02-19T09:43:17;9.90;99.90
50162;DHT22;36061;48.116;11.612;2023-02-19T09:45:48;9.90;99.90
50162;DHT22;36061;48.116;11.612;2023-02-19T09:48:20;10.10;99.90
50162;DHT22;36061;48.116;11.612;2023-02-19T09:50:48;10.20;99.90
50162;DHT22;36061;48.116;11.612;2023-02-19T09:53:19;10.20;99.90
50162;DHT22;36061;48.116;11.612;2023-02-19T09:55:46;10.00;99.90
50162;DHT22;36061;48.116;11.612;2023-02-19T09:58:20;9.80;99.90
50162;DHT22;36061;48.116;11.612;2023-02-19T10:00:52;9.60;99.90
50162;DHT22;36061;48.116;11.612;2023-02-19T10:03:22;9.40;99.90
50162;DHT22;36061;48.116;11.612;2023-02-19T10:05:56;9.30;99.90
50162;DHT22;36061;48.116;11.612;2023-02-19T10:08:23;9.40;99.90
50162;DHT22;36061;48.116;11.612;2023-02-19T10:10:51;9.40;99.90
50162;DHT22;36061;48.116;11.612;2023-02-19T10:13:21;9.50;99.90
50162;DHT22;36061;48.116;11.612;2023-02-19T10:15:51;9.60;99.90
50162;DHT22;36061;48.116;11.612;2023-02-19T10:18:22;9.60;99.90
50162;DHT22;36061;48.116;11.612;2023-02-19T10:20:51;9.50;99.90
50162;DHT22;36061;48.116;11.612;2023-02-19T10:23:19;9.50;99.90
50162;DHT22;36061;48.116;11.612;2023-02-19T10:25:50;9.50;99.90
50162;DHT22;36061;48.116;11.612;2023-02-19T10:28:22;9.60;99.90
50162;DHT22;36061;48.116;11.612;2023-02-19T10:30:53;9.60;99.90
50162;DHT22;36061;48.116;11.612;2023-02-19T10:33:21;9.70;99.90
50162;DHT22;36061;48.116;11.612;2023-02-19T10:35:54;9.70;99.90
50162;DHT22;36061;48.116;11.612;2023-02-19T10:38:25;9.80;99.90
50162;DHT22;36061;48.116;11.612;2023-02-19T10:41:00;9.90;99.90
50162;DHT22;36061;48.116;11.612;2023-02-19T10:43:29;10.00;99.90
50162;DHT22;36061;48.116;11.612;2023-02-19T10:46:02;10.10;99.90
50162;DHT22;36061;48.116;11.612;2023-02-19T10:48:32;10.20;99.90
50162;DHT22;36061;48.116;11.612;2023-02-19T10:51:03;10.20;99.90
50162;DHT22;36061;48.116;11.612;2023-02-19T10:53:41;10.30;99.90
50162;DHT22;36061;48.116;11.612;2023-02-19T10:56:12;10.50;99.90
50162;DHT22;36061;48.116;11.612;2023-02-19T10:58:43;10.60;99.90
50162;DHT22;36061;48.116;11.612;2023-02-19T11:01:16;10.60;99.90
50162;DHT22;36061;48.116;11.612;2023-02-19T11:03:45;10.60;99.90
50162;DHT22;36061;48.116;11.612;2023-02-19T11:06:14;10.70;99.90
50162;DHT22;36061;48.116;11.612;2023-02-19T11:08:50;10.60;99.90
50162;DHT22;36061;48.116;11.612;2023-02-19T11:11:27;10.60;99.90
50162;DHT22;36061;48.116;11.612;2023-02-19T11:13:56;10.60;99.90
50162;DHT22;36061;48.116;11.612;2023-02-19T11:16:43;10.60;99.90
50162;DHT22;36061;48.116;11.612;2023-02-19T11:19:22;10.60;99.90
50162;DHT22;36061;48.116;11.612;2023-02-19T11:21:51;10.70;99.90
50162;DHT22;36061;48.116;11.612;2023-02-19T11:24:24;10.70;99.90
50162;DHT22;36061;48.116;11.612;2023-02-19T11:26:53;10.70;99.90
50162;DHT22;36061;48.116;11.612;2023-02-19T11:29:22;10.70;99.90
50162;DHT22;36061;48.116;11.612;2023-02-19T11:31:53;10.70;99.90
50162;DHT22;36061;48.116;11.612;2023-02-19T11:34:28;10.70;99.90
50162;DHT22;36061;48.116;11.612;2023-02-19T11:37:10;10.80;99.90
50162;DHT22;36061;48.116;11.612;2023-02-19T11:39:40;10.80;99.90
50162;DHT22;36061;48.116;11.612;2023-02-19T11:42:29;10.80;99.90
50162;DHT22;36061;48.116;11.612;2023-02-19T11:45:10;10.80;99.90
50162;DHT22;36061;48.116;11.612;2023-02-19T11:50:56;10.90;99.90
50162;DHT22;36061;48.116;11.612;2023-02-19T11:53:30;11.00;99.90
50162;DHT22;36061;48.116;11.612;2023-02-19T11:56:09;11.10;99.90
50162;DHT22;36061;48.116;11.612;2023-02-19T11:58:56;11.10;99.90
50162;DHT22;36061;48.116;11.612;2023-02-19T12:01:35;10.90;99.90
50162;DHT22;36061;48.116;11.612;2023-02-19T12:07:12;10.60;99.90
50162;DHT22;36061;48.116;11.612;2023-02-19T12:09:52;10.50;99.90
50162;DHT22;36061;48.116;11.612;2023-02-19T12:12:36;10.40;99.90
50162;DHT22;36061;48.116;11.612;2023-02-19T12:15:21;10.50;99.90
50162;DHT22;36061;48.116;11.612;2023-02-19T12:18:16;10.50;99.90
50162;DHT22;36061;48.116;11.612;2023-02-19T12:20:59;10.60;99.90
50162;DHT22;36061;48.116;11.612;2023-02-19T12:23:44;10.60;99.90
50162;DHT22;36061;48.116;11.612;2023-02-19T12:26:19;10.70;99.90
50162;DHT22;36061;48.116;11.612;2023-02-19T12:29:03;10.70;99.90
50162;DHT22;36061;48.116;11.612;2023-02-19T12:31:52;10.70;99.90
50162;DHT22;36061;48.116;11.612;2023-02-19T12:34:46;10.70;99.90
50162;DHT22;36061;48.116;11.612;2023-02-19T12:37:29;10.80;99.90
50162;DHT22;36061;48.116;11.612;2023-02-19T12:40:16;10.80;99.90
50162;DHT22;36061;48.116;11.612;2023-02-19T12:42:54;10.80;99.90
50162;DHT22;36061;48.116;11.612;2023-02-19T12:45:29;10.70;99.90
50162;DHT22;36061;48.116;11.612;2023-02-19T12:48:00;10.60;99.90
50162;DHT22;36061;48.116;11.612;2023-02-19T12:50:29;10.70;99.90
50162;DHT22;36061;48.116;11.612;2023-02-19T12:53:02;10.70;99.90
50162;DHT22;36061;48.116;11.612;2023-02-19T12:55:34;10.60;99.90
50162;DHT22;36061;48.116;11.612;2023-02-19T12:58:03;10.50;99.90
50162;DHT22;36061;48.116;11.612;2023-02-19T13:00:36;10.40;99.90
50162;DHT22;36061;48.116;11.612;2023-02-19T13:03:11;10.20;99.90
50162;DHT22;36061;48.116;11.612;2023-02-19T13:05:46;10.10;99.90
50162;DHT22;36061;48.116;11.612;2023-02-19T13:08:21;10.00;99.90
50162;DHT22;36061;48.116;11.612;2023-02-19T13:10:56;10.00;99.90
50162;DHT22;36061;48.116;11.612;2023-02-19T13:13:30;10.00;99.90
50162;DHT22;36061;48.116;11.612;2023-02-19T13:16:04;10.00;99.90
50162;DHT22;36061;48.116;11.612;2023-02-19T13:18:39;10.00;99.90
50162;DHT22;36061;48.116;11.612;2023-02-19T13:21:09;10.00;99.90
50162;DHT22;36061;48.116;11.612;2023-02-19T13:23:40;10.00;99.90
50162;DHT22;36061;48.116;11.612;2023-02-19T13:26:47;10.10;99.90
50162;DHT22;36061;48.116;11.612;2023-02-19T13:29:28;10.10;99.90
50162;DHT22;36061;48.116;11.612;2023-02-19T13:32:22;10.20;99.90
50162;DHT22;36061;48.116;11.612;2023-02-19T13:35:01;10.30;99.90
50162;DHT22;36061;48.116;11.612;2023-02-19T13:37:31;10.40;99.90
50162;DHT22;36061;48.116;11.612;2023-02-19T13:40:05;10.30;99.90
50162;DHT22;36061;48.116;11.612;2023-02-19T13:42:34;10.40;99.90
50162;DHT22;36061;48.116;11.612;2023-02-19T13:45:03;10.40;99.90
50162;DHT22;36061;48.116;11.612;2023-02-19T13:47:49;10.40;99.90
50162;DHT22;36061;48.116;11.612;2023-02-19T13:50:25;10.20;99.90
50162;DHT22;36061;48.116;11.612;2023-02-19T13:52:53;10.00;99.90
50162;DHT22;36061;48.116;11.612;2023-02-19T13:55:47;10.00;99.90
50162;DHT22;36061;48.116;11.612;2023-02-19T14:01:17;9.80;99.90
50162;DHT22;36061;48.116;11.612;2023-02-19T14:03:47;9.80;99.90
50162;DHT22;36061;48.116;11.612;2023-02-19T14:06:15;9.70;99.90
50162;DHT22;36061;48.116;11.612;2023-02-19T14:08:52;9.60;99.90
50162;DHT22;36061;48.116;11.612;2023-02-19T14:14:27;9.60;99.90
50162;DHT22;36061;48.116;11.612;2023-02-19T14:17:13;9.60;99.90
50162;DHT22;36061;48.116;11.612;2023-02-19T14:19:55;9.60;99.90
50162;DHT22;36061;48.116;11.612;2023-02-19T14:22:45;9.50;99.90
50162;DHT22;36061;48.116;11.612;2023-02-19T14:25:26;9.50;99.90
50162;DHT22;36061;48.116;11.612;2023-02-19T14:28:00;9.50;99.90
50162;DHT22;36061;48.116;11.612;2023-02-19T14:30:31;9.50;99.90
50162;DHT22;36061;48.116;11.612;2023-02-19T14:33:01;9.50;99.90
50162;DHT22;36061;48.116;11.612;2023-02-19T14:35:33;9.50;99.90
50162;DHT22;36061;48.116;11.612;2023-02-19T14:38:02;9.50;99.90
50162;DHT22;36061;48.116;11.612;2023-02-19T14:40:35;9.50;99.90
50162;DHT22;36061;48.116;11.612;2023-02-19T14:43:04;9.60;99.90
50162;DHT22;36061;48.116;11.612;2023-02-19T14:45:40;9.50;99.90
50162;DHT22;36061;48.116;11.612;2023-02-19T14:48:16;9.50;99.90
50162;DHT22;36061;48.116;11.612;2023-02-19T14:50:47;9.50;99.90
50162;DHT22;36061;48.116;11.612;2023-02-19T14:53:16;9.50;99.90
50162;DHT22;36061;48.116;11.612;2023-02-19T14:55:47;9.40;99.90
50162;DHT22;36061;48.116;11.612;2023-02-19T14:58:17;9.40;99.90
50162;DHT22;36061;48.116;11.612;2023-02-19T15:00:51;9.40;99.90
50162;DHT22;36061;48.116;11.612;2023-02-19T15:03:29;9.30;99.90
50162;DHT22;36061;48.116;11.612;2023-02-19T15:06:00;9.30;99.90
50162;DHT22;36061;48.116;11.612;2023-02-19T15:08:32;9.30;99.90
50162;DHT22;36061;48.116;11.612;2023-02-19T15:11:02;9.30;99.90
50162;DHT22;36061;48.116;11.612;2023-02-19T15:13:30;9.40;99.90
50162;DHT22;36061;48.116;11.612;2023-02-19T15:15:59;9.40;99.90
50162;DHT22;36061;48.116;11.612;2023-02-19T15:18:26;9.50;99.90
50162;DHT22;36061;48.116;11.612;2023-02-19T15:20:59;9.50;99.90
50162;DHT22;36061;48.116;11.612;2023-02-19T15:23:30;9.50;99.90
50162;DHT22;36061;48.116;11.612;2023-02-19T15:25:58;9.50;99.90
50162;DHT22;36061;48.116;11.612;2023-02-19T15:28:30;9.40;99.90
50162;DHT22;36061;48.116;11.612;2023-02-19T15:31:14;9.50;99.90
50162;DHT22;36061;48.116;11.612;2023-02-19T15:33:49;9.50;99.90
50162;DHT22;36061;48.116;11.612;2023-02-19T15:36:24;9.50;99.90
50162;DHT22;36061;48.116;11.612;2023-02-19T15:38:54;9.50;99.90
50162;DHT22;36061;48.116;11.612;2023-02-19T15:41:23;9.50;99.90
50162;DHT22;36061;48.116;11.612;2023-02-19T15:43:59;9.50;99.90
50162;DHT22;36061;48.116;11.612;2023-02-19T15:46:30;9.40;99.90
50162;DHT22;36061;48.116;11.612;2023-02-19T15:49:01;9.50;99.90
50162;DHT22;36061;48.116;11.612;2023-02-19T15:51:34;9.40;99.90
50162;DHT22;36061;48.116;11.612;2023-02-19T15:54:11;9.50;99.90
50162;DHT22;36061;48.116;11.612;2023-02-19T15:56:43;9.40;99.90
50162;DHT22;36061;48.116;11.612;2023-02-19T15:59:21;9.30;99.90
50162;DHT22;36061;48.116;11.612;2023-02-19T16:01:51;9.30;99.90
50162;DHT22;36061;48.116;11.612;2023-02-19T16:04:19;9.30;99.90
50162;DHT22;36061;48.116;11.612;2023-02-19T16:06:55;9.20;99.90
50162;DHT22;36061;48.116;11.612;2023-02-19T16:09:28;9.20;99.90